Swords Creek, Virginia
Current Conditions -  °F | °C
As of 6:15 AM on Thursday 23 Oct 2014 (Local Time) from KJFZ Reporting Station
Overcast Overcast  
Wind Chill: 39°   Ceiling: 900
Heat Index: 44°   Visibility: 10mi
Dew Point: 40°   Wind: 9mph
Humidity: 87%   Direction: 330°NNW
Pressure: 30.17"   Gusts: NA
Location:  37.04°N, 81.92°W
Report Text: KJFZ 231015Z AUTO 33008KT 10SM BKN009 OVC014 07/05 A3017 RMK AO2 T00650045
Loading
Personal Weather Stations






























Interactive Weather Map
Tropical Storm Tracking
New forecast layout! Learn more

10-Day Weather Forecast

Advertisements
Track Severe Weather on mobile